Togiak Airport Togiak Village US
ICAO: PATG
IATA:
Category: Medium
Scheduled Services:

Elevation: 21 ft
TransAlt. 18000 ft.

Airport Communications:
AWOS 3:119.3
ANCHORAGE CNTR:124.8
CTAF:122.5
KENAI RDO:122.25

PATG Zoom In..

If you have problems with the map follow the link
https://www.worldairports.se/pages/airport.php?
ICAO=PATG

Runways:

(A) RW 03 length 4400 ft width 75 ft
---- / hdg 28

(B) RW 10 length 981 ft width 59 ft
---- / hdg 97

(C) RW 21 length 4400 ft width 75 ft
---- / hdg 208

(D) RW 28 length 981 ft width 59 ft
---- / hdg 277

Location; PATG
Day. 15 / Time. 23.56 Zulu
* Altimeter: 30.40
* Temperature: -11° c. -12.2°f.
* Wind from: 360° Speed 09 kn.
Dewpoint: -13° c.
Visibility: 10 Statute Miles.
Clouds: Clear (automated report).

PATG 152356Z AUTO 36009KT 10SM CLR M11/M13 A3040 RMK AO2 SLP396 60000 T11061128 11106 21161 58036 FZRANO


Wind From 360°
Speed 09 kn.

 
 
jpsmedia worldairports.se 2020   terms of use